sensor_id;sensor_type;location;lat;lon;timestamp;pressure;altitude;pressure_sealevel;temperature;humidity
24486;BME280;13449;49.374;8.584;2023-04-28T00:00:24;100400.38;;;13.31;100.00
24486;BME280;13449;49.374;8.584;2023-04-28T00:02:52;100398.13;;;13.28;100.00
24486;BME280;13449;49.374;8.584;2023-04-28T00:05:19;100382.09;;;13.30;100.00
24486;BME280;13449;49.374;8.584;2023-04-28T00:07:50;100370.31;;;13.32;100.00
24486;BME280;13449;49.374;8.584;2023-04-28T00:10:17;100365.81;;;13.33;100.00
24486;BME280;13449;49.374;8.584;2023-04-28T00:12:43;100361.34;;;13.33;100.00
24486;BME280;13449;49.374;8.584;2023-04-28T00:15:10;100360.09;;;13.29;100.00
24486;BME280;13449;49.374;8.584;2023-04-28T00:17:36;100368.06;;;13.36;100.00
24486;BME280;13449;49.374;8.584;2023-04-28T00:20:03;100356.75;;;13.21;100.00
24486;BME280;13449;49.374;8.584;2023-04-28T00:22:30;100351.03;;;13.10;100.00
24486;BME280;13449;49.374;8.584;2023-04-28T00:24:57;100354.72;;;13.16;100.00
24486;BME280;13449;49.374;8.584;2023-04-28T00:27:23;100343.09;;;13.10;100.00
24486;BME280;13449;49.374;8.584;2023-04-28T00:29:49;100342.25;;;13.03;100.00
24486;BME280;13449;49.374;8.584;2023-04-28T00:32:16;100345.16;;;12.80;100.00
24486;BME280;13449;49.374;8.584;2023-04-28T00:34:42;100338.06;;;12.59;100.00
24486;BME280;13449;49.374;8.584;2023-04-28T00:37:09;100331.16;;;12.58;100.00
24486;BME280;13449;49.374;8.584;2023-04-28T00:39:35;100340.81;;;12.45;100.00
24486;BME280;13449;49.374;8.584;2023-04-28T00:42:02;100334.47;;;12.18;100.00
24486;BME280;13449;49.374;8.584;2023-04-28T00:44:31;100320.72;;;12.22;100.00
24486;BME280;13449;49.374;8.584;2023-04-28T00:47:00;100316.34;;;12.14;100.00
24486;BME280;13449;49.374;8.584;2023-04-28T00:49:26;100319.06;;;12.21;100.00
24486;BME280;13449;49.374;8.584;2023-04-28T00:51:55;100322.38;;;12.08;100.00
24486;BME280;13449;49.374;8.584;2023-04-28T00:54:25;100321.13;;;12.04;100.00
24486;BME280;13449;49.374;8.584;2023-04-28T00:56:51;100314.16;;;11.97;100.00
24486;BME280;13449;49.374;8.584;2023-04-28T00:59:19;100314.47;;;12.08;100.00
24486;BME280;13449;49.374;8.584;2023-04-28T01:01:46;100305.34;;;12.11;100.00
24486;BME280;13449;49.374;8.584;2023-04-28T01:04:12;100302.66;;;12.26;100.00
24486;BME280;13449;49.374;8.584;2023-04-28T01:06:40;100298.88;;;12.35;100.00
24486;BME280;13449;49.374;8.584;2023-04-28T01:09:07;100292.03;;;12.47;100.00
24486;BME280;13449;49.374;8.584;2023-04-28T01:11:34;100283.53;;;12.52;100.00
24486;BME280;13449;49.374;8.584;2023-04-28T01:14:03;100282.38;;;12.33;100.00
24486;BME280;13449;49.374;8.584;2023-04-28T01:16:32;100278.50;;;12.29;100.00
24486;BME280;13449;49.374;8.584;2023-04-28T01:18:59;100282.56;;;12.31;100.00
24486;BME280;13449;49.374;8.584;2023-04-28T01:21:27;100281.81;;;12.37;100.00
24486;BME280;13449;49.374;8.584;2023-04-28T01:24:00;100280.31;;;12.28;100.00
24486;BME280;13449;49.374;8.584;2023-04-28T01:26:31;100266.66;;;12.25;100.00
24486;BME280;13449;49.374;8.584;2023-04-28T01:28:58;100265.25;;;12.22;100.00
24486;BME280;13449;49.374;8.584;2023-04-28T01:31:27;100262.31;;;12.38;100.00
24486;BME280;13449;49.374;8.584;2023-04-28T01:33:56;100268.84;;;12.43;100.00
24486;BME280;13449;49.374;8.584;2023-04-28T01:36:24;100276.13;;;12.40;100.00
24486;BME280;13449;49.374;8.584;2023-04-28T01:38:53;100282.44;;;12.39;100.00
24486;BME280;13449;49.374;8.584;2023-04-28T01:41:20;100286.44;;;12.29;100.00
24486;BME280;13449;49.374;8.584;2023-04-28T01:43:47;100281.91;;;12.23;100.00
24486;BME280;13449;49.374;8.584;2023-04-28T01:46:14;100281.59;;;12.11;100.00
24486;BME280;13449;49.374;8.584;2023-04-28T01:48:40;100277.81;;;11.99;100.00
24486;BME280;13449;49.374;8.584;2023-04-28T01:51:07;100273.88;;;11.88;100.00
24486;BME280;13449;49.374;8.584;2023-04-28T01:53:33;100268.28;;;11.98;100.00
24486;BME280;13449;49.374;8.584;2023-04-28T01:56:00;100262.56;;;11.94;100.00
24486;BME280;13449;49.374;8.584;2023-04-28T01:58:26;100267.25;;;11.99;100.00
24486;BME280;13449;49.374;8.584;2023-04-28T02:00:53;100271.88;;;11.90;100.00
24486;BME280;13449;49.374;8.584;2023-04-28T02:03:19;100274.06;;;11.86;100.00
24486;BME280;13449;49.374;8.584;2023-04-28T02:05:46;100278.72;;;11.84;100.00
24486;BME280;13449;49.374;8.584;2023-04-28T02:08:12;100276.34;;;11.75;100.00
24486;BME280;13449;49.374;8.584;2023-04-28T02:10:39;100285.31;;;11.59;100.00
24486;BME280;13449;49.374;8.584;2023-04-28T02:13:05;100282.03;;;11.57;100.00
24486;BME280;13449;49.374;8.584;2023-04-28T02:15:31;100279.09;;;11.45;100.00
24486;BME280;13449;49.374;8.584;2023-04-28T02:17:58;100276.19;;;11.40;100.00
24486;BME280;13449;49.374;8.584;2023-04-28T02:20:27;100281.91;;;11.43;100.00
24486;BME280;13449;49.374;8.584;2023-04-28T02:22:56;100279.00;;;11.38;100.00
24486;BME280;13449;49.374;8.584;2023-04-28T02:25:25;100277.56;;;11.36;100.00
24486;BME280;13449;49.374;8.584;2023-04-28T02:27:51;100272.09;;;11.37;100.00
24486;BME280;13449;49.374;8.584;2023-04-28T02:30:17;100270.16;;;11.46;100.00
24486;BME280;13449;49.374;8.584;2023-04-28T02:32:44;100259.44;;;11.48;100.00
24486;BME280;13449;49.374;8.584;2023-04-28T02:35:10;100267.81;;;11.36;100.00
24486;BME280;13449;49.374;8.584;2023-04-28T02:37:37;100272.94;;;11.38;100.00
24486;BME280;13449;49.374;8.584;2023-04-28T02:40:04;100254.53;;;11.44;100.00
24486;BME280;13449;49.374;8.584;2023-04-28T02:42:33;100268.09;;;11.63;100.00
24486;BME280;13449;49.374;8.584;2023-04-28T02:45:02;100261.72;;;11.51;100.00
24486;BME280;13449;49.374;8.584;2023-04-28T02:47:33;100259.53;;;11.39;100.00
24486;BME280;13449;49.374;8.584;2023-04-28T02:50:00;100264.72;;;11.48;100.00
24486;BME280;13449;49.374;8.584;2023-04-28T02:52:29;100266.06;;;11.43;100.00
24486;BME280;13449;49.374;8.584;2023-04-28T02:54:55;100259.16;;;11.42;100.00
24486;BME280;13449;49.374;8.584;2023-04-28T02:57:23;100264.66;;;11.41;100.00
24486;BME280;13449;49.374;8.584;2023-04-28T02:59:49;100267.09;;;11.42;100.00
24486;BME280;13449;49.374;8.584;2023-04-28T03:02:16;100255.53;;;11.43;100.00
24486;BME280;13449;49.374;8.584;2023-04-28T03:04:42;100259.53;;;11.39;100.00
24486;BME280;13449;49.374;8.584;2023-04-28T03:07:11;100252.38;;;11.33;100.00
24486;BME280;13449;49.374;8.584;2023-04-28T03:09:37;100248.34;;;11.37;100.00
24486;BME280;13449;49.374;8.584;2023-04-28T03:12:06;100237.44;;;11.40;100.00
24486;BME280;13449;49.374;8.584;2023-04-28T03:14:32;100242.63;;;11.34;100.00
24486;BME280;13449;49.374;8.584;2023-04-28T03:17:01;100237.84;;;11.59;100.00
24486;BME280;13449;49.374;8.584;2023-04-28T03:19:28;100237.03;;;11.58;100.00
24486;BME280;13449;49.374;8.584;2023-04-28T03:21:54;100224.41;;;11.54;100.00
24486;BME280;13449;49.374;8.584;2023-04-28T03:24:23;100219.44;;;11.44;100.00
24486;BME280;13449;49.374;8.584;2023-04-28T03:26:49;100227.59;;;11.49;100.00
24486;BME280;13449;49.374;8.584;2023-04-28T03:29:19;100232.63;;;11.44;100.00
24486;BME280;13449;49.374;8.584;2023-04-28T03:31:46;100225.09;;;11.41;100.00
24486;BME280;13449;49.374;8.584;2023-04-28T03:34:14;100219.75;;;11.34;100.00
24486;BME280;13449;49.374;8.584;2023-04-28T03:36:41;100225.47;;;11.23;100.00
24486;BME280;13449;49.374;8.584;2023-04-28T03:39:08;100207.88;;;11.09;100.00
24486;BME280;13449;49.374;8.584;2023-04-28T03:41:35;100209.22;;;11.19;100.00
24486;BME280;13449;49.374;8.584;2023-04-28T03:44:01;100213.81;;;11.32;100.00
24486;BME280;13449;49.374;8.584;2023-04-28T03:46:28;100214.84;;;11.31;100.00
24486;BME280;13449;49.374;8.584;2023-04-28T03:48:54;100207.41;;;11.20;100.00
24486;BME280;13449;49.374;8.584;2023-04-28T03:51:21;100208.56;;;11.17;100.00
24486;BME280;13449;49.374;8.584;2023-04-28T03:53:47;100212.50;;;11.21;100.00
24486;BME280;13449;49.374;8.584;2023-04-28T03:56:14;100213.56;;;11.27;100.00
24486;BME280;13449;49.374;8.584;2023-04-28T03:58:40;100222.03;;;11.22;100.00
24486;BME280;13449;49.374;8.584;2023-04-28T04:01:07;100237.56;;;11.17;100.00
24486;BME280;13449;49.374;8.584;2023-04-28T04:03:33;100236.16;;;11.15;100.00
24486;BME280;13449;49.374;8.584;2023-04-28T04:06:00;100238.66;;;11.23;100.00
24486;BME280;13449;49.374;8.584;2023-04-28T04:08:27;100236.03;;;11.23;100.00
24486;BME280;13449;49.374;8.584;2023-04-28T04:10:54;100228.97;;;11.09;100.00
24486;BME280;13449;49.374;8.584;2023-04-28T04:13:21;100230.50;;;11.18;100.00
24486;BME280;13449;49.374;8.584;2023-04-28T04:15:48;100225.34;;;11.10;100.00
24486;BME280;13449;49.374;8.584;2023-04-28T04:18:15;100234.50;;;11.14;100.00
24486;BME280;13449;49.374;8.584;2023-04-28T04:20:42;100223.88;;;11.07;100.00
24486;BME280;13449;49.374;8.584;2023-04-28T04:23:08;100228.16;;;11.08;100.00
24486;BME280;13449;49.374;8.584;2023-04-28T04:25:35;100222.63;;;11.03;100.00
24486;BME280;13449;49.374;8.584;2023-04-28T04:28:01;100215.94;;;11.22;100.00
24486;BME280;13449;49.374;8.584;2023-04-28T04:30:30;100210.69;;;11.07;100.00
24486;BME280;13449;49.374;8.584;2023-04-28T04:32:56;100204.16;;;11.03;100.00
24486;BME280;13449;49.374;8.584;2023-04-28T04:35:23;100195.44;;;11.03;100.00
24486;BME280;13449;49.374;8.584;2023-04-28T04:37:52;100199.16;;;11.08;100.00
24486;BME280;13449;49.374;8.584;2023-04-28T04:40:19;100199.97;;;11.09;100.00
24486;BME280;13449;49.374;8.584;2023-04-28T04:42:45;100198.91;;;11.03;100.00
24486;BME280;13449;49.374;8.584;2023-04-28T04:45:11;100200.22;;;11.14;100.00
24486;BME280;13449;49.374;8.584;2023-04-28T04:47:39;100200.44;;;11.12;100.00
24486;BME280;13449;49.374;8.584;2023-04-28T04:50:06;100201.00;;;11.29;100.00
24486;BME280;13449;49.374;8.584;2023-04-28T04:52:33;100206.66;;;11.26;100.00
24486;BME280;13449;49.374;8.584;2023-04-28T04:54:59;100215.13;;;11.21;100.00
24486;BME280;13449;49.374;8.584;2023-04-28T04:57:26;100212.13;;;11.25;100.00
24486;BME280;13449;49.374;8.584;2023-04-28T04:59:53;100206.16;;;11.37;100.00
24486;BME280;13449;49.374;8.584;2023-04-28T05:02:21;100208.19;;;11.35;100.00
24486;BME280;13449;49.374;8.584;2023-04-28T05:04:48;100207.75;;;11.17;100.00
24486;BME280;13449;49.374;8.584;2023-04-28T05:07:15;100206.00;;;11.24;100.00
24486;BME280;13449;49.374;8.584;2023-04-28T05:09:41;100205.41;;;11.22;100.00
24486;BME280;13449;49.374;8.584;2023-04-28T05:12:08;100214.56;;;11.26;100.00
24486;BME280;13449;49.374;8.584;2023-04-28T05:14:34;100216.94;;;11.21;100.00
24486;BME280;13449;49.374;8.584;2023-04-28T05:17:01;100221.03;;;11.23;100.00
24486;BME280;13449;49.374;8.584;2023-04-28T05:19:28;100227.53;;;11.28;100.00
24486;BME280;13449;49.374;8.584;2023-04-28T05:21:54;100230.47;;;11.33;100.00
24486;BME280;13449;49.374;8.584;2023-04-28T05:24:21;100219.91;;;11.33;100.00
24486;BME280;13449;49.374;8.584;2023-04-28T05:26:52;100218.88;;;11.49;100.00
24486;BME280;13449;49.374;8.584;2023-04-28T05:29:20;100211.25;;;11.39;100.00
24486;BME280;13449;49.374;8.584;2023-04-28T05:31:47;100217.53;;;11.38;100.00
24486;BME280;13449;49.374;8.584;2023-04-28T05:34:13;100218.66;;;11.29;100.00
24486;BME280;13449;49.374;8.584;2023-04-28T05:36:42;100214.53;;;11.41;100.00
24486;BME280;13449;49.374;8.584;2023-04-28T05:39:09;100227.03;;;11.17;100.00
24486;BME280;13449;49.374;8.584;2023-04-28T05:41:36;100227.38;;;11.29;100.00
24486;BME280;13449;49.374;8.584;2023-04-28T05:44:02;100229.88;;;11.16;100.00
24486;BME280;13449;49.374;8.584;2023-04-28T05:46:31;100215.94;;;11.22;100.00
24486;BME280;13449;49.374;8.584;2023-04-28T05:48:58;100212.88;;;11.40;100.00
24486;BME280;13449;49.374;8.584;2023-04-28T05:51:24;100200.19;;;11.29;100.00
24486;BME280;13449;49.374;8.584;2023-04-28T05:53:52;100206.78;;;11.39;100.00
24486;BME280;13449;49.374;8.584;2023-04-28T05:56:21;100204.16;;;11.39;100.00
24486;BME280;13449;49.374;8.584;2023-04-28T05:58:50;100201.97;;;11.43;100.00
24486;BME280;13449;49.374;8.584;2023-04-28T06:01:19;100202.03;;;11.50;100.00
24486;BME280;13449;49.374;8.584;2023-04-28T06:03:46;100203.84;;;11.49;100.00
24486;BME280;13449;49.374;8.584;2023-04-28T06:06:12;100199.66;;;11.55;100.00
24486;BME280;13449;49.374;8.584;2023-04-28T06:08:39;100205.09;;;11.75;100.00
24486;BME280;13449;49.374;8.584;2023-04-28T06:11:08;100199.72;;;11.61;100.00
24486;BME280;13449;49.374;8.584;2023-04-28T06:13:37;100201.91;;;11.58;100.00
24486;BME280;13449;49.374;8.584;2023-04-28T06:16:03;100213.38;;;11.50;100.00
24486;BME280;13449;49.374;8.584;2023-04-28T06:18:30;100227.03;;;11.54;100.00
24486;BME280;13449;49.374;8.584;2023-04-28T06:21:00;100228.78;;;11.46;100.00
24486;BME280;13449;49.374;8.584;2023-04-28T06:23:27;100230.28;;;11.56;100.00
24486;BME280;13449;49.374;8.584;2023-04-28T06:25:53;100230.50;;;11.54;100.00
24486;BME280;13449;49.374;8.584;2023-04-28T06:28:20;100238.66;;;11.59;100.00
24486;BME280;13449;49.374;8.584;2023-04-28T06:30:46;100248.53;;;11.51;100.00
24486;BME280;13449;49.374;8.584;2023-04-28T06:33:13;100252.84;;;11.58;100.00
24486;BME280;13449;49.374;8.584;2023-04-28T06:35:39;100246.31;;;11.54;100.00
24486;BME280;13449;49.374;8.584;2023-04-28T06:38:06;100245.56;;;11.60;100.00
24486;BME280;13449;49.374;8.584;2023-04-28T06:40:33;100231.53;;;11.60;100.00
24486;BME280;13449;49.374;8.584;2023-04-28T06:42:59;100231.53;;;11.60;100.00
24486;BME280;13449;49.374;8.584;2023-04-28T06:45:26;100240.47;;;11.59;100.00
24486;BME280;13449;49.374;8.584;2023-04-28T06:47:53;100220.88;;;11.68;100.00
24486;BME280;13449;49.374;8.584;2023-04-28T06:50:22;100220.25;;;11.66;100.00
24486;BME280;13449;49.374;8.584;2023-04-28T06:52:48;100224.72;;;11.65;100.00
24486;BME280;13449;49.374;8.584;2023-04-28T06:55:17;100217.38;;;11.61;100.00
24486;BME280;13449;49.374;8.584;2023-04-28T06:57:46;100221.25;;;11.65;100.00
24486;BME280;13449;49.374;8.584;2023-04-28T07:00:15;100219.56;;;11.57;100.00
24486;BME280;13449;49.374;8.584;2023-04-28T07:02:44;100217.81;;;11.64;100.00
24486;BME280;13449;49.374;8.584;2023-04-28T07:05:11;100215.59;;;11.68;100.00
24486;BME280;13449;49.374;8.584;2023-04-28T07:07:40;100216.25;;;11.70;100.00
24486;BME280;13449;49.374;8.584;2023-04-28T07:10:07;100220.69;;;11.69;100.00
24486;BME280;13449;49.374;8.584;2023-04-28T07:12:36;100214.09;;;11.80;100.00
24486;BME280;13449;49.374;8.584;2023-04-28T07:15:03;100223.75;;;11.73;100.00
24486;BME280;13449;49.374;8.584;2023-04-28T07:17:32;100229.66;;;11.75;100.00
24486;BME280;13449;49.374;8.584;2023-04-28T07:19:58;100215.47;;;11.76;100.00
24486;BME280;13449;49.374;8.584;2023-04-28T07:22:25;100227.47;;;11.79;100.00
24486;BME280;13449;49.374;8.584;2023-04-28T07:24:54;100220.06;;;11.89;100.00
24486;BME280;13449;49.374;8.584;2023-04-28T07:27:21;100229.50;;;11.98;100.00
24486;BME280;13449;49.374;8.584;2023-04-28T07:29:49;100223.75;;;12.16;100.00
24486;BME280;13449;49.374;8.584;2023-04-28T07:32:18;100218.28;;;12.18;100.00
24486;BME280;13449;49.374;8.584;2023-04-28T07:34:45;100221.44;;;12.34;100.00
24486;BME280;13449;49.374;8.584;2023-04-28T07:37:11;100236.50;;;12.40;100.00
24486;BME280;13449;49.374;8.584;2023-04-28T07:39:38;100223.44;;;12.67;100.00
24486;BME280;13449;49.374;8.584;2023-04-28T07:42:07;100225.03;;;12.55;100.00
24486;BME280;13449;49.374;8.584;2023-04-28T07:44:36;100225.22;;;12.53;100.00
24486;BME280;13449;49.374;8.584;2023-04-28T07:47:02;100212.50;;;12.70;100.00
24486;BME280;13449;49.374;8.584;2023-04-28T07:49:30;100206.97;;;12.58;100.00
24486;BME280;13449;49.374;8.584;2023-04-28T07:51:57;100210.84;;;12.62;100.00
24486;BME280;13449;49.374;8.584;2023-04-28T07:54:28;100201.63;;;12.52;100.00
24486;BME280;13449;49.374;8.584;2023-04-28T07:56:55;100210.97;;;12.54;100.00
24486;BME280;13449;49.374;8.584;2023-04-28T07:59:23;100211.19;;;12.53;100.00
24486;BME280;13449;49.374;8.584;2023-04-28T08:01:49;100209.88;;;12.35;100.00
24486;BME280;13449;49.374;8.584;2023-04-28T08:04:16;100216.16;;;12.34;100.00
24486;BME280;13449;49.374;8.584;2023-04-28T08:06:43;100205.63;;;12.41;100.00
24486;BME280;13449;49.374;8.584;2023-04-28T08:09:09;100203.38;;;12.38;100.00
24486;BME280;13449;49.374;8.584;2023-04-28T08:11:36;100205.66;;;12.48;100.00
24486;BME280;13449;49.374;8.584;2023-04-28T08:14:02;100202.41;;;12.46;100.00
24486;BME280;13449;49.374;8.584;2023-04-28T08:16:29;100200.84;;;12.51;100.00
24486;BME280;13449;49.374;8.584;2023-04-28T08:18:56;100195.75;;;12.56;100.00
24486;BME280;13449;49.374;8.584;2023-04-28T08:21:24;100202.31;;;12.67;100.00
24486;BME280;13449;49.374;8.584;2023-04-28T08:23:50;100194.47;;;12.80;100.00
24486;BME280;13449;49.374;8.584;2023-04-28T08:26:17;100192.28;;;12.91;100.00
24486;BME280;13449;49.374;8.584;2023-04-28T08:28:43;100199.19;;;12.92;100.00
24486;BME280;13449;49.374;8.584;2023-04-28T08:31:10;100188.03;;;13.03;100.00
24486;BME280;13449;49.374;8.584;2023-04-28T08:33:36;100188.66;;;13.12;100.00
24486;BME280;13449;49.374;8.584;2023-04-28T08:36:03;100203.53;;;13.19;100.00
24486;BME280;13449;49.374;8.584;2023-04-28T08:38:30;100216.66;;;13.34;100.00
24486;BME280;13449;49.374;8.584;2023-04-28T08:41:01;100203.63;;;13.32;100.00
24486;BME280;13449;49.374;8.584;2023-04-28T08:43:32;100212.50;;;13.18;100.00
24486;BME280;13449;49.374;8.584;2023-04-28T08:46:01;100220.41;;;13.12;100.00
24486;BME280;13449;49.374;8.584;2023-04-28T08:48:33;100213.03;;;12.94;100.00
24486;BME280;13449;49.374;8.584;2023-04-28T08:51:05;100219.53;;;12.91;100.00
24486;BME280;13449;49.374;8.584;2023-04-28T08:53:36;100208.94;;;12.91;100.00
24486;BME280;13449;49.374;8.584;2023-04-28T08:56:23;100215.31;;;13.03;100.00
24486;BME280;13449;49.374;8.584;2023-04-28T08:58:52;100221.59;;;13.02;100.00
24486;BME280;13449;49.374;8.584;2023-04-28T09:01:19;100214.56;;;13.23;100.00
24486;BME280;13449;49.374;8.584;2023-04-28T09:03:45;100206.44;;;13.24;100.00
24486;BME280;13449;49.374;8.584;2023-04-28T09:06:15;100214.00;;;13.34;100.00
24486;BME280;13449;49.374;8.584;2023-04-28T09:08:44;100203.84;;;13.44;100.00
24486;BME280;13449;49.374;8.584;2023-04-28T09:11:11;100210.56;;;13.47;100.00
24486;BME280;13449;49.374;8.584;2023-04-28T09:13:41;100214.28;;;13.66;100.00
24486;BME280;13449;49.374;8.584;2023-04-28T09:16:08;100208.97;;;13.92;100.00
24486;BME280;13449;49.374;8.584;2023-04-28T09:18:37;100210.59;;;14.07;100.00
24486;BME280;13449;49.374;8.584;2023-04-28T09:21:09;100206.75;;;14.02;100.00
24486;BME280;13449;49.374;8.584;2023-04-28T09:23:46;100207.34;;;14.05;100.00
24486;BME280;13449;49.374;8.584;2023-04-28T09:26:16;100214.69;;;13.96;100.00
24486;BME280;13449;49.374;8.584;2023-04-28T09:28:42;100208.16;;;13.98;100.00
24486;BME280;13449;49.374;8.584;2023-04-28T09:31:25;100212.84;;;14.03;100.00
24486;BME280;13449;49.374;8.584;2023-04-28T09:33:57;100209.78;;;13.99;100.00
24486;BME280;13449;49.374;8.584;2023-04-28T09:36:27;100212.66;;;14.11;100.00
24486;BME280;13449;49.374;8.584;2023-04-28T09:38:58;100210.41;;;14.08;100.00
24486;BME280;13449;49.374;8.584;2023-04-28T09:46:40;100202.00;;;14.44;100.00
24486;BME280;13449;49.374;8.584;2023-04-28T09:49:10;100201.59;;;14.61;100.00
24486;BME280;13449;49.374;8.584;2023-04-28T09:51:39;100198.28;;;14.79;100.00
24486;BME280;13449;49.374;8.584;2023-04-28T09:54:06;100197.75;;;15.08;100.00
24486;BME280;13449;49.374;8.584;2023-04-28T09:56:34;100200.91;;;15.24;100.00
24486;BME280;13449;49.374;8.584;2023-04-28T09:59:06;100203.97;;;15.20;100.00
24486;BME280;13449;49.374;8.584;2023-04-28T10:01:39;100202.25;;;15.39;100.00
24486;BME280;13449;49.374;8.584;2023-04-28T10:04:07;100204.28;;;15.06;100.00
24486;BME280;13449;49.374;8.584;2023-04-28T10:06:35;100203.09;;;14.95;100.00
24486;BME280;13449;49.374;8.584;2023-04-28T10:09:04;100198.84;;;15.26;100.00
24486;BME280;13449;49.374;8.584;2023-04-28T10:11:32;100202.97;;;15.22;100.00
24486;BME280;13449;49.374;8.584;2023-04-28T10:13:59;100204.59;;;15.23;100.00
24486;BME280;13449;49.374;8.584;2023-04-28T10:16:29;100212.41;;;15.11;100.00
24486;BME280;13449;49.374;8.584;2023-04-28T10:18:59;100202.22;;;15.01;100.00
24486;BME280;13449;49.374;8.584;2023-04-28T10:21:28;100208.16;;;15.03;100.00
24486;BME280;13449;49.374;8.584;2023-04-28T10:24:17;100211.06;;;14.95;100.00
24486;BME280;13449;49.374;8.584;2023-04-28T10:29:26;100203.47;;;15.05;100.00
24486;BME280;13449;49.374;8.584;2023-04-28T10:34:41;100211.22;;;15.00;100.00
24486;BME280;13449;49.374;8.584;2023-04-28T10:37:08;100209.00;;;14.97;100.00
24486;BME280;13449;49.374;8.584;2023-04-28T10:39:34;100211.03;;;15.02;100.00
24486;BME280;13449;49.374;8.584;2023-04-28T10:42:01;100213.31;;;14.85;100.00
24486;BME280;13449;49.374;8.584;2023-04-28T10:47:04;100204.84;;;15.08;100.00
24486;BME280;13449;49.374;8.584;2023-04-28T10:55:32;100191.34;;;15.54;100.00
24486;BME280;13449;49.374;8.584;2023-04-28T11:00:46;100189.00;;;15.64;100.00
24486;BME280;13449;49.374;8.584;2023-04-28T11:03:47;100179.06;;;15.53;100.00
24486;BME280;13449;49.374;8.584;2023-04-28T11:06:19;100172.09;;;15.59;100.00
24486;BME280;13449;49.374;8.584;2023-04-28T11:08:48;100181.22;;;15.76;100.00
24486;BME280;13449;49.374;8.584;2023-04-28T11:11:19;100179.31;;;15.83;100.00
24486;BME280;13449;49.374;8.584;2023-04-28T11:13:47;100188.84;;;15.91;100.00
24486;BME280;13449;49.374;8.584;2023-04-28T11:16:16;100186.78;;;15.93;100.00
24486;BME280;13449;49.374;8.584;2023-04-28T11:18:57;100182.00;;;15.77;100.00
24486;BME280;13449;49.374;8.584;2023-04-28T11:21:25;100186.41;;;15.89;100.00
24486;BME280;13449;49.374;8.584;2023-04-28T11:23:53;100183.63;;;16.03;100.00
24486;BME280;13449;49.374;8.584;2023-04-28T11:26:23;100179.31;;;15.83;100.00
24486;BME280;13449;49.374;8.584;2023-04-28T11:28:54;100176.97;;;15.69;100.00
24486;BME280;13449;49.374;8.584;2023-04-28T11:31:22;100188.13;;;15.77;100.00
24486;BME280;13449;49.374;8.584;2023-04-28T11:33:56;100184.88;;;15.75;100.00
24486;BME280;13449;49.374;8.584;2023-04-28T11:36:34;100177.84;;;15.87;100.00
24486;BME280;13449;49.374;8.584;2023-04-28T11:39:03;100182.59;;;15.79;100.00
24486;BME280;13449;49.374;8.584;2023-04-28T11:41:38;100186.19;;;15.91;100.00
24486;BME280;13449;49.374;8.584;2023-04-28T11:44:14;100185.81;;;15.87;100.00
24486;BME280;13449;49.374;8.584;2023-04-28T11:46:45;100184.06;;;16.00;100.00
24486;BME280;13449;49.374;8.584;2023-04-28T11:49:16;100188.28;;;16.07;100.00
24486;BME280;13449;49.374;8.584;2023-04-28T11:51:43;100189.16;;;16.01;100.00
24486;BME280;13449;49.374;8.584;2023-04-28T11:54:12;100177.34;;;15.97;100.00
24486;BME280;13449;49.374;8.584;2023-04-28T11:56:41;100173.00;;;16.03;100.00
24486;BME280;13449;49.374;8.584;2023-04-28T11:59:09;100167.03;;;16.07;100.00
24486;BME280;13449;49.374;8.584;2023-04-28T12:01:50;100170.84;;;16.11;100.00
24486;BME280;13449;49.374;8.584;2023-04-28T12:09:35;100170.66;;;16.13;100.00
24486;BME280;13449;49.374;8.584;2023-04-28T12:12:04;100175.03;;;16.26;100.00
24486;BME280;13449;49.374;8.584;2023-04-28T12:14:54;100180.22;;;16.39;100.00
24486;BME280;13449;49.374;8.584;2023-04-28T12:17:35;100172.69;;;16.36;100.00
24486;BME280;13449;49.374;8.584;2023-04-28T12:22:44;100186.41;;;16.70;100.00
24486;BME280;13449;49.374;8.584;2023-04-28T12:25:13;100192.78;;;16.87;100.00
24486;BME280;13449;49.374;8.584;2023-04-28T12:27:58;100195.19;;;16.70;100.00
24486;BME280;13449;49.374;8.584;2023-04-28T12:30:27;100187.19;;;16.77;100.00
24486;BME280;13449;49.374;8.584;2023-04-28T12:32:54;100195.91;;;16.84;100.00
24486;BME280;13449;49.374;8.584;2023-04-28T12:35:27;100183.09;;;16.74;100.00
24486;BME280;13449;49.374;8.584;2023-04-28T12:37:54;100184.09;;;16.73;100.00
24486;BME280;13449;49.374;8.584;2023-04-28T12:40:24;100178.59;;;16.75;100.00
24486;BME280;13449;49.374;8.584;2023-04-28T12:42:51;100181.63;;;16.97;100.00
24486;BME280;13449;49.374;8.584;2023-04-28T12:45:17;100179.16;;;16.95;100.00
24486;BME280;13449;49.374;8.584;2023-04-28T12:47:44;100177.63;;;16.88;100.00
24486;BME280;13449;49.374;8.584;2023-04-28T12:50:11;100168.88;;;16.99;100.00
24486;BME280;13449;49.374;8.584;2023-04-28T12:52:37;100166.13;;;17.05;100.00
24486;BME280;13449;49.374;8.584;2023-04-28T12:55:04;100166.66;;;16.96;100.00
24486;BME280;13449;49.374;8.584;2023-04-28T12:57:31;100172.34;;;16.99;100.00
24486;BME280;13449;49.374;8.584;2023-04-28T13:00:00;100169.06;;;17.16;100.00
24486;BME280;13449;49.374;8.584;2023-04-28T13:02:27;100158.25;;;17.29;100.00
24486;BME280;13449;49.374;8.584;2023-04-28T13:04:53;100164.56;;;17.58;100.00
24486;BME280;13449;49.374;8.584;2023-04-28T13:07:20;100161.28;;;17.98;100.00
24486;BME280;13449;49.374;8.584;2023-04-28T13:09:47;100146.53;;;18.19;100.00
24486;BME280;13449;49.374;8.584;2023-04-28T13:12:14;100151.53;;;18.67;100.00
24486;BME280;13449;49.374;8.584;2023-04-28T13:14:40;100149.06;;;19.18;100.00